sensor_id;sensor_type;location;lat;lon;timestamp;pressure;altitude;pressure_sealevel;temperature;humidity
60258;BME280;46115;44.484;11.314;2023-05-02T00:03:50;99918.56;;;14.07;100.00
60258;BME280;46115;44.484;11.314;2023-05-02T00:07:53;99901.25;;;14.01;100.00
60258;BME280;46115;44.484;11.314;2023-05-02T00:11:55;99918.34;;;14.10;100.00
60258;BME280;46115;44.484;11.314;2023-05-02T00:15:59;99897.00;;;13.99;100.00
60258;BME280;46115;44.484;11.314;2023-05-02T00:20:01;99896.59;;;14.29;100.00
60258;BME280;46115;44.484;11.314;2023-05-02T00:24:05;99884.59;;;14.23;100.00
60258;BME280;46115;44.484;11.314;2023-05-02T00:28:07;99889.59;;;14.28;100.00
60258;BME280;46115;44.484;11.314;2023-05-02T00:32:11;99875.75;;;13.99;100.00
60258;BME280;46115;44.484;11.314;2023-05-02T00:36:14;99874.00;;;14.11;100.00
60258;BME280;46115;44.484;11.314;2023-05-02T00:40:17;99860.66;;;13.99;100.00
60258;BME280;46115;44.484;11.314;2023-05-02T00:44:20;99855.91;;;13.92;100.00
60258;BME280;46115;44.484;11.314;2023-05-02T00:48:24;99847.38;;;14.23;100.00
60258;BME280;46115;44.484;11.314;2023-05-02T00:52:27;99839.63;;;14.20;100.00
60258;BME280;46115;44.484;11.314;2023-05-02T00:56:30;99817.84;;;13.91;100.00
60258;BME280;46115;44.484;11.314;2023-05-02T01:00:43;99829.75;;;14.22;100.00
60258;BME280;46115;44.484;11.314;2023-05-02T01:04:56;99832.44;;;14.10;100.00
60258;BME280;46115;44.484;11.314;2023-05-02T01:09:15;99830.97;;;14.05;100.00
60258;BME280;46115;44.484;11.314;2023-05-02T01:13:23;99823.97;;;14.04;100.00
60258;BME280;46115;44.484;11.314;2023-05-02T01:17:29;99798.78;;;13.73;100.00
60258;BME280;46115;44.484;11.314;2023-05-02T01:21:36;99823.31;;;13.77;100.00
60258;BME280;46115;44.484;11.314;2023-05-02T01:25:49;99827.69;;;14.02;100.00
60258;BME280;46115;44.484;11.314;2023-05-02T01:29:57;99812.53;;;14.15;100.00
60258;BME280;46115;44.484;11.314;2023-05-02T01:34:01;99810.41;;;13.96;100.00
60258;BME280;46115;44.484;11.314;2023-05-02T01:38:06;99804.16;;;13.85;100.00
60258;BME280;46115;44.484;11.314;2023-05-02T01:42:10;99810.84;;;13.90;100.00
60258;BME280;46115;44.484;11.314;2023-05-02T01:46:15;99812.28;;;13.70;100.00
60258;BME280;46115;44.484;11.314;2023-05-02T01:50:22;99804.50;;;14.04;100.00
60258;BME280;46115;44.484;11.314;2023-05-02T01:54:27;99798.06;;;13.95;100.00
60258;BME280;46115;44.484;11.314;2023-05-02T01:58:31;99795.84;;;14.13;100.00
60258;BME280;46115;44.484;11.314;2023-05-02T02:02:36;99798.78;;;14.21;100.00
60258;BME280;46115;44.484;11.314;2023-05-02T02:06:44;99788.03;;;13.75;100.00
60258;BME280;46115;44.484;11.314;2023-05-02T02:10:53;99794.44;;;13.72;100.00
60258;BME280;46115;44.484;11.314;2023-05-02T02:15:07;99786.69;;;13.69;100.00
60258;BME280;46115;44.484;11.314;2023-05-02T02:19:13;99786.34;;;13.74;100.00
60258;BME280;46115;44.484;11.314;2023-05-02T02:23:18;99776.84;;;13.59;100.00
60258;BME280;46115;44.484;11.314;2023-05-02T02:27:22;99792.91;;;13.57;100.00
60258;BME280;46115;44.484;11.314;2023-05-02T02:31:29;99784.03;;;13.69;100.00
60258;BME280;46115;44.484;11.314;2023-05-02T02:35:37;99777.97;;;13.67;100.00
60258;BME280;46115;44.484;11.314;2023-05-02T02:39:48;99787.31;;;13.73;100.00
60258;BME280;46115;44.484;11.314;2023-05-02T02:43:59;99783.34;;;13.42;100.00
60258;BME280;46115;44.484;11.314;2023-05-02T02:48:23;99783.88;;;13.47;100.00
60258;BME280;46115;44.484;11.314;2023-05-02T02:52:36;99781.75;;;13.39;100.00
60258;BME280;46115;44.484;11.314;2023-05-02T02:56:44;99796.31;;;13.34;100.00
60258;BME280;46115;44.484;11.314;2023-05-02T03:00:48;99783.91;;;13.34;100.00
60258;BME280;46115;44.484;11.314;2023-05-02T03:04:52;99782.66;;;13.27;100.00
60258;BME280;46115;44.484;11.314;2023-05-02T03:08:57;99767.31;;;13.43;100.00
60258;BME280;46115;44.484;11.314;2023-05-02T03:13:03;99786.78;;;13.31;100.00
60258;BME280;46115;44.484;11.314;2023-05-02T03:17:07;99769.44;;;13.38;100.00
60258;BME280;46115;44.484;11.314;2023-05-02T03:21:10;99782.94;;;13.35;100.00
60258;BME280;46115;44.484;11.314;2023-05-02T03:25:14;99787.53;;;13.21;100.00
60258;BME280;46115;44.484;11.314;2023-05-02T03:29:20;99801.38;;;13.50;100.00
60258;BME280;46115;44.484;11.314;2023-05-02T03:33:23;99786.53;;;13.47;100.00
60258;BME280;46115;44.484;11.314;2023-05-02T03:37:26;99793.28;;;13.27;100.00
60258;BME280;46115;44.484;11.314;2023-05-02T03:41:31;99800.69;;;13.35;100.00
60258;BME280;46115;44.484;11.314;2023-05-02T03:45:39;99805.22;;;13.46;100.00
60258;BME280;46115;44.484;11.314;2023-05-02T03:49:42;99812.66;;;13.53;100.00
60258;BME280;46115;44.484;11.314;2023-05-02T03:53:45;99806.00;;;13.35;100.00
60258;BME280;46115;44.484;11.314;2023-05-02T03:57:49;99812.44;;;13.43;100.00
60258;BME280;46115;44.484;11.314;2023-05-02T04:01:52;99805.25;;;13.33;100.00
60258;BME280;46115;44.484;11.314;2023-05-02T04:06:00;99819.88;;;13.38;100.00
60258;BME280;46115;44.484;11.314;2023-05-02T04:10:04;99824.53;;;13.60;100.00
60258;BME280;46115;44.484;11.314;2023-05-02T04:14:13;99834.31;;;13.47;100.00
60258;BME280;46115;44.484;11.314;2023-05-02T04:18:18;99859.81;;;13.37;100.00
60258;BME280;46115;44.484;11.314;2023-05-02T04:22:21;99838.69;;;13.35;100.00
60258;BME280;46115;44.484;11.314;2023-05-02T04:26:27;99845.66;;;13.49;100.00
60258;BME280;46115;44.484;11.314;2023-05-02T04:30:37;99852.25;;;13.43;100.00
60258;BME280;46115;44.484;11.314;2023-05-02T04:34:44;99857.81;;;13.53;100.00
60258;BME280;46115;44.484;11.314;2023-05-02T04:38:47;99846.53;;;13.50;100.00
60258;BME280;46115;44.484;11.314;2023-05-02T04:42:51;99870.97;;;13.55;100.00
60258;BME280;46115;44.484;11.314;2023-05-02T04:46:58;99883.03;;;13.71;100.00
60258;BME280;46115;44.484;11.314;2023-05-02T04:51:00;99894.53;;;13.47;100.00
60258;BME280;46115;44.484;11.314;2023-05-02T04:55:05;99898.38;;;13.55;100.00
60258;BME280;46115;44.484;11.314;2023-05-02T04:59:08;99869.59;;;13.36;100.00
60258;BME280;46115;44.484;11.314;2023-05-02T05:03:12;99915.75;;;13.72;100.00
60258;BME280;46115;44.484;11.314;2023-05-02T05:07:14;99908.41;;;13.76;100.00
60258;BME280;46115;44.484;11.314;2023-05-02T05:11:19;99930.00;;;13.71;100.00
60258;BME280;46115;44.484;11.314;2023-05-02T05:15:22;99923.13;;;13.56;100.00
60258;BME280;46115;44.484;11.314;2023-05-02T05:19:32;99930.44;;;13.65;100.00
60258;BME280;46115;44.484;11.314;2023-05-02T05:23:34;99937.53;;;13.52;100.00
60258;BME280;46115;44.484;11.314;2023-05-02T05:27:37;99952.09;;;13.71;100.00
60258;BME280;46115;44.484;11.314;2023-05-02T05:31:41;99956.03;;;13.66;100.00
60258;BME280;46115;44.484;11.314;2023-05-02T05:35:47;99971.56;;;13.59;100.00
60258;BME280;46115;44.484;11.314;2023-05-02T05:39:50;99967.72;;;13.63;100.00
60258;BME280;46115;44.484;11.314;2023-05-02T05:43:52;99968.44;;;13.78;100.00
60258;BME280;46115;44.484;11.314;2023-05-02T05:47:57;99942.63;;;13.42;100.00
60258;BME280;46115;44.484;11.314;2023-05-02T05:52:05;99986.38;;;13.87;100.00
60258;BME280;46115;44.484;11.314;2023-05-02T05:56:08;99988.13;;;13.63;100.00
60258;BME280;46115;44.484;11.314;2023-05-02T06:00:13;99994.91;;;13.80;100.00
60258;BME280;46115;44.484;11.314;2023-05-02T06:04:23;99993.00;;;13.82;100.00
60258;BME280;46115;44.484;11.314;2023-05-02T06:08:28;100016.38;;;13.77;100.00
60258;BME280;46115;44.484;11.314;2023-05-02T06:12:31;100010.53;;;13.59;100.00
60258;BME280;46115;44.484;11.314;2023-05-02T06:16:33;100013.59;;;13.78;100.00
60258;BME280;46115;44.484;11.314;2023-05-02T06:20:35;100017.53;;;13.85;100.00
60258;BME280;46115;44.484;11.314;2023-05-02T06:24:39;100016.03;;;13.81;100.00
60258;BME280;46115;44.484;11.314;2023-05-02T06:28:42;100012.41;;;14.08;100.00
60258;BME280;46115;44.484;11.314;2023-05-02T06:32:44;100026.06;;;13.90;100.00
60258;BME280;46115;44.484;11.314;2023-05-02T06:36:47;100027.09;;;13.75;100.00
60258;BME280;46115;44.484;11.314;2023-05-02T06:40:51;100028.72;;;13.90;100.00
60258;BME280;46115;44.484;11.314;2023-05-02T06:44:53;100036.88;;;13.87;100.00
60258;BME280;46115;44.484;11.314;2023-05-02T06:48:56;100041.25;;;13.88;100.00
60258;BME280;46115;44.484;11.314;2023-05-02T06:52:58;100041.75;;;13.81;100.00
60258;BME280;46115;44.484;11.314;2023-05-02T06:57:02;100041.53;;;13.84;100.00
60258;BME280;46115;44.484;11.314;2023-05-02T07:01:04;100048.28;;;13.89;100.00
60258;BME280;46115;44.484;11.314;2023-05-02T07:05:07;100057.81;;;14.04;100.00
60258;BME280;46115;44.484;11.314;2023-05-02T07:09:10;100051.09;;;13.86;100.00
60258;BME280;46115;44.484;11.314;2023-05-02T07:13:13;100056.97;;;13.79;100.00
60258;BME280;46115;44.484;11.314;2023-05-02T07:17:16;100030.94;;;13.71;100.00
60258;BME280;46115;44.484;11.314;2023-05-02T07:21:18;100043.47;;;13.94;100.00
60258;BME280;46115;44.484;11.314;2023-05-02T07:25:21;100037.53;;;13.91;100.00
60258;BME280;46115;44.484;11.314;2023-05-02T07:29:24;100052.91;;;13.86;100.00
60258;BME280;46115;44.484;11.314;2023-05-02T07:33:27;100055.47;;;14.13;100.00
60258;BME280;46115;44.484;11.314;2023-05-02T07:37:32;100059.09;;;14.24;100.00
60258;BME280;46115;44.484;11.314;2023-05-02T07:41:35;100061.75;;;14.24;100.00
60258;BME280;46115;44.484;11.314;2023-05-02T07:45:39;100068.44;;;14.17;100.00
60258;BME280;46115;44.484;11.314;2023-05-02T07:49:41;100073.88;;;14.03;100.00
60258;BME280;46115;44.484;11.314;2023-05-02T07:53:43;100079.91;;;14.18;100.00
60258;BME280;46115;44.484;11.314;2023-05-02T07:57:45;100088.97;;;14.15;100.00
60258;BME280;46115;44.484;11.314;2023-05-02T08:01:49;100092.38;;;13.92;100.00
60258;BME280;46115;44.484;11.314;2023-05-02T08:05:51;100098.28;;;13.70;100.00
60258;BME280;46115;44.484;11.314;2023-05-02T08:09:54;100103.31;;;14.00;100.00
60258;BME280;46115;44.484;11.314;2023-05-02T08:13:56;100112.47;;;14.09;100.00
60258;BME280;46115;44.484;11.314;2023-05-02T08:17:59;100102.44;;;13.87;100.00
60258;BME280;46115;44.484;11.314;2023-05-02T08:22:02;100104.06;;;13.89;100.00
60258;BME280;46115;44.484;11.314;2023-05-02T08:26:04;100107.25;;;14.07;100.00
60258;BME280;46115;44.484;11.314;2023-05-02T08:30:09;100090.03;;;14.00;100.00
60258;BME280;46115;44.484;11.314;2023-05-02T08:34:12;100104.47;;;14.21;100.00
60258;BME280;46115;44.484;11.314;2023-05-02T08:38:15;100115.88;;;14.11;100.00
60258;BME280;46115;44.484;11.314;2023-05-02T08:42:17;100119.03;;;14.16;100.00
60258;BME280;46115;44.484;11.314;2023-05-02T08:46:21;100119.78;;;14.05;100.00
60258;BME280;46115;44.484;11.314;2023-05-02T08:50:26;100087.03;;;13.79;100.00
60258;BME280;46115;44.484;11.314;2023-05-02T08:54:30;100136.16;;;14.12;100.00
60258;BME280;46115;44.484;11.314;2023-05-02T08:58:32;100126.41;;;14.25;100.00
60258;BME280;46115;44.484;11.314;2023-05-02T09:02:55;100137.88;;;14.13;100.00
60258;BME280;46115;44.484;11.314;2023-05-02T09:07:03;100137.03;;;14.12;100.00
60258;BME280;46115;44.484;11.314;2023-05-02T09:11:06;100148.19;;;14.30;100.00
60258;BME280;46115;44.484;11.314;2023-05-02T09:15:10;100146.09;;;14.22;100.00
60258;BME280;46115;44.484;11.314;2023-05-02T09:19:22;100154.81;;;14.24;100.00
60258;BME280;46115;44.484;11.314;2023-05-02T09:23:38;100161.94;;;14.24;100.00
60258;BME280;46115;44.484;11.314;2023-05-02T09:27:51;100170.94;;;14.21;100.00
60258;BME280;46115;44.484;11.314;2023-05-02T09:31:54;100157.31;;;14.13;100.00
60258;BME280;46115;44.484;11.314;2023-05-02T09:35:56;100165.72;;;14.20;100.00
60258;BME280;46115;44.484;11.314;2023-05-02T09:40:07;100162.63;;;14.13;100.00
60258;BME280;46115;44.484;11.314;2023-05-02T09:44:11;100161.19;;;14.34;100.00
60258;BME280;46115;44.484;11.314;2023-05-02T09:48:14;100165.09;;;14.42;100.00
60258;BME280;46115;44.484;11.314;2023-05-02T09:52:20;100176.09;;;14.50;100.00
60258;BME280;46115;44.484;11.314;2023-05-02T09:56:24;100174.53;;;14.20;100.00
60258;BME280;46115;44.484;11.314;2023-05-02T10:00:40;100181.97;;;14.02;100.00
60258;BME280;46115;44.484;11.314;2023-05-02T10:04:44;100192.00;;;14.37;100.00
60258;BME280;46115;44.484;11.314;2023-05-02T10:08:48;100181.66;;;14.07;100.00
60258;BME280;46115;44.484;11.314;2023-05-02T10:12:52;100168.81;;;14.01;100.00
60258;BME280;46115;44.484;11.314;2023-05-02T10:17:00;100185.50;;;14.16;100.00
60258;BME280;46115;44.484;11.314;2023-05-02T10:21:07;100180.97;;;14.43;100.00
60258;BME280;46115;44.484;11.314;2023-05-02T10:25:11;100153.19;;;14.09;100.00
60258;BME280;46115;44.484;11.314;2023-05-02T10:29:15;100186.78;;;14.10;100.00
60258;BME280;46115;44.484;11.314;2023-05-02T10:33:19;100181.16;;;14.27;100.00
60258;BME280;46115;44.484;11.314;2023-05-02T10:37:22;100155.19;;;14.18;100.00
60258;BME280;46115;44.484;11.314;2023-05-02T10:41:28;100188.94;;;14.30;100.00
60258;BME280;46115;44.484;11.314;2023-05-02T10:45:34;100196.28;;;14.27;100.00
60258;BME280;46115;44.484;11.314;2023-05-02T10:49:48;100197.53;;;14.21;100.00
60258;BME280;46115;44.484;11.314;2023-05-02T10:53:51;100195.72;;;14.22;100.00
60258;BME280;46115;44.484;11.314;2023-05-02T10:58:21;100208.81;;;14.38;100.00
60258;BME280;46115;44.484;11.314;2023-05-02T11:02:47;100207.19;;;14.10;100.00
60258;BME280;46115;44.484;11.314;2023-05-02T11:07:17;100213.25;;;14.12;100.00
60258;BME280;46115;44.484;11.314;2023-05-02T11:11:43;100218.34;;;14.15;100.00
60258;BME280;46115;44.484;11.314;2023-05-02T11:15:55;100214.94;;;14.13;100.00
60258;BME280;46115;44.484;11.314;2023-05-02T11:20:29;100186.66;;;13.99;100.00
60258;BME280;46115;44.484;11.314;2023-05-02T11:24:38;100206.47;;;13.81;100.00
60258;BME280;46115;44.484;11.314;2023-05-02T11:28:42;100218.56;;;14.12;100.00
60258;BME280;46115;44.484;11.314;2023-05-02T11:33:11;100226.59;;;14.24;100.00
60258;BME280;46115;44.484;11.314;2023-05-02T11:37:18;100212.59;;;14.08;100.00
60258;BME280;46115;44.484;11.314;2023-05-02T11:41:21;100211.88;;;14.06;100.00
60258;BME280;46115;44.484;11.314;2023-05-02T11:45:31;100233.44;;;14.14;100.00
60258;BME280;46115;44.484;11.314;2023-05-02T11:49:35;100237.09;;;14.26;100.00
60258;BME280;46115;44.484;11.314;2023-05-02T11:53:40;100241.56;;;14.25;100.00
60258;BME280;46115;44.484;11.314;2023-05-02T11:57:43;100237.59;;;14.18;100.00
60258;BME280;46115;44.484;11.314;2023-05-02T12:01:49;100244.78;;;14.30;100.00
60258;BME280;46115;44.484;11.314;2023-05-02T12:05:54;100249.28;;;14.16;100.00
60258;BME280;46115;44.484;11.314;2023-05-02T12:09:58;100241.31;;;14.03;100.00
60258;BME280;46115;44.484;11.314;2023-05-02T12:14:01;100234.81;;;14.07;100.00
60258;BME280;46115;44.484;11.314;2023-05-02T12:18:05;100255.88;;;14.10;100.00
60258;BME280;46115;44.484;11.314;2023-05-02T12:22:08;100250.09;;;14.30;100.00
60258;BME280;46115;44.484;11.314;2023-05-02T12:26:19;100254.34;;;14.33;100.00
60258;BME280;46115;44.484;11.314;2023-05-02T12:30:24;100266.03;;;14.30;100.00
60258;BME280;46115;44.484;11.314;2023-05-02T12:34:33;100257.84;;;14.33;100.00
60258;BME280;46115;44.484;11.314;2023-05-02T12:38:36;100275.63;;;14.33;100.00
60258;BME280;46115;44.484;11.314;2023-05-02T12:42:39;100275.97;;;14.14;100.00
60258;BME280;46115;44.484;11.314;2023-05-02T12:46:57;100270.81;;;14.25;100.00
60258;BME280;46115;44.484;11.314;2023-05-02T12:50:59;100271.41;;;14.16;100.00
60258;BME280;46115;44.484;11.314;2023-05-02T12:55:14;100278.59;;;14.41;100.00
60258;BME280;46115;44.484;11.314;2023-05-02T12:59:28;100283.16;;;14.26;100.00
60258;BME280;46115;44.484;11.314;2023-05-02T13:03:31;100279.22;;;14.32;100.00
60258;BME280;46115;44.484;11.314;2023-05-02T13:07:35;100281.25;;;14.41;100.00
60258;BME280;46115;44.484;11.314;2023-05-02T13:11:37;100279.38;;;14.43;100.00
60258;BME280;46115;44.484;11.314;2023-05-02T13:15:41;100292.28;;;14.62;100.00
60258;BME280;46115;44.484;11.314;2023-05-02T13:19:44;100296.97;;;14.58;100.00
60258;BME280;46115;44.484;11.314;2023-05-02T13:23:46;100281.38;;;14.40;100.00
60258;BME280;46115;44.484;11.314;2023-05-02T13:27:50;100292.69;;;14.43;100.00
60258;BME280;46115;44.484;11.314;2023-05-02T13:31:54;100292.19;;;14.63;100.00
60258;BME280;46115;44.484;11.314;2023-05-02T13:35:56;100293.13;;;14.75;100.00
60258;BME280;46115;44.484;11.314;2023-05-02T13:39:58;100290.56;;;14.21;100.00
60258;BME280;46115;44.484;11.314;2023-05-02T13:44:01;100290.69;;;14.59;100.00
60258;BME280;46115;44.484;11.314;2023-05-02T13:48:05;100275.75;;;14.44;100.00
60258;BME280;46115;44.484;11.314;2023-05-02T13:52:07;100294.84;;;14.63;100.00
60258;BME280;46115;44.484;11.314;2023-05-02T13:56:10;100286.94;;;14.49;100.00
60258;BME280;46115;44.484;11.314;2023-05-02T14:00:13;100295.88;;;14.48;100.00
60258;BME280;46115;44.484;11.314;2023-05-02T14:04:17;100297.94;;;14.57;100.00
60258;BME280;46115;44.484;11.314;2023-05-02T14:08:19;100304.00;;;14.59;100.00
60258;BME280;46115;44.484;11.314;2023-05-02T14:12:22;100308.34;;;14.60;100.00
60258;BME280;46115;44.484;11.314;2023-05-02T14:16:24;100306.75;;;14.58;100.00
60258;BME280;46115;44.484;11.314;2023-05-02T14:20:28;100307.69;;;14.57;100.00
60258;BME280;46115;44.484;11.314;2023-05-02T14:24:30;100315.78;;;14.55;100.00
60258;BME280;46115;44.484;11.314;2023-05-02T14:28:32;100315.25;;;14.50;100.00
60258;BME280;46115;44.484;11.314;2023-05-02T14:32:35;100319.69;;;14.50;100.00
60258;BME280;46115;44.484;11.314;2023-05-02T14:36:38;100324.16;;;14.49;100.00
60258;BME280;46115;44.484;11.314;2023-05-02T14:40:41;100323.66;;;14.57;100.00
60258;BME280;46115;44.484;11.314;2023-05-02T14:44:43;100329.19;;;14.54;100.00
60258;BME280;46115;44.484;11.314;2023-05-02T14:48:46;100322.50;;;14.61;100.00
60258;BME280;46115;44.484;11.314;2023-05-02T14:52:50;100269.88;;;14.26;100.00
60258;BME280;46115;44.484;11.314;2023-05-02T14:56:52;100332.25;;;14.48;100.00
60258;BME280;46115;44.484;11.314;2023-05-02T15:00:54;100329.44;;;14.63;100.00
60258;BME280;46115;44.484;11.314;2023-05-02T15:04:56;100342.94;;;14.33;100.00
60258;BME280;46115;44.484;11.314;2023-05-02T15:09:00;100341.28;;;14.45;100.00
60258;BME280;46115;44.484;11.314;2023-05-02T15:13:03;100328.47;;;14.64;100.00
60258;BME280;46115;44.484;11.314;2023-05-02T15:17:06;100328.47;;;14.64;100.00
60258;BME280;46115;44.484;11.314;2023-05-02T15:21:09;100332.50;;;14.30;100.00
60258;BME280;46115;44.484;11.314;2023-05-02T15:25:12;100343.53;;;14.51;100.00
60258;BME280;46115;44.484;11.314;2023-05-02T15:29:15;100352.00;;;14.71;100.00
60258;BME280;46115;44.484;11.314;2023-05-02T15:33:17;100349.22;;;14.72;100.00
60258;BME280;46115;44.484;11.314;2023-05-02T15:37:19;100348.38;;;14.72;100.00
60258;BME280;46115;44.484;11.314;2023-05-02T15:41:24;100353.88;;;14.56;100.00
60258;BME280;46115;44.484;11.314;2023-05-02T15:45:26;100358.69;;;14.63;100.00
60258;BME280;46115;44.484;11.314;2023-05-02T15:49:29;100363.56;;;14.30;100.00
60258;BME280;46115;44.484;11.314;2023-05-02T15:53:33;100362.06;;;14.53;100.00
60258;BME280;46115;44.484;11.314;2023-05-02T15:57:40;100357.63;;;14.39;100.00
60258;BME280;46115;44.484;11.314;2023-05-02T16:01:43;100366.09;;;14.46;100.00
60258;BME280;46115;44.484;11.314;2023-05-02T16:05:46;100363.00;;;14.52;100.00
60258;BME280;46115;44.484;11.314;2023-05-02T16:09:48;100377.38;;;14.49;100.00
60258;BME280;46115;44.484;11.314;2023-05-02T16:13:52;100372.75;;;14.39;100.00
60258;BME280;46115;44.484;11.314;2023-05-02T16:17:54;100368.44;;;14.50;100.00
60258;BME280;46115;44.484;11.314;2023-05-02T16:21:57;100373.25;;;14.31;100.00
60258;BME280;46115;44.484;11.314;2023-05-02T16:25:59;100369.06;;;14.00;100.00
60258;BME280;46115;44.484;11.314;2023-05-02T16:30:04;100372.75;;;14.39;100.00
60258;BME280;46115;44.484;11.314;2023-05-02T16:34:07;100325.84;;;14.11;100.00
60258;BME280;46115;44.484;11.314;2023-05-02T16:38:09;100380.94;;;14.21;100.00
60258;BME280;46115;44.484;11.314;2023-05-02T16:42:11;100381.03;;;14.34;100.00
60258;BME280;46115;44.484;11.314;2023-05-02T16:46:15;100382.19;;;14.30;100.00
60258;BME280;46115;44.484;11.314;2023-05-02T16:50:18;100383.72;;;14.20;100.00
60258;BME280;46115;44.484;11.314;2023-05-02T16:54:20;100370.59;;;14.31;100.00
60258;BME280;46115;44.484;11.314;2023-05-02T16:58:23;100384.13;;;14.41;100.00
60258;BME280;46115;44.484;11.314;2023-05-02T17:02:26;100390.69;;;14.35;100.00
60258;BME280;46115;44.484;11.314;2023-05-02T17:06:29;100384.47;;;14.22;100.00
60258;BME280;46115;44.484;11.314;2023-05-02T17:10:31;100391.16;;;14.42;100.00
60258;BME280;46115;44.484;11.314;2023-05-02T17:14:34;100389.41;;;14.28;100.00
60258;BME280;46115;44.484;11.314;2023-05-02T17:18:38;100402.09;;;14.37;100.00
60258;BME280;46115;44.484;11.314;2023-05-02T17:22:40;100398.78;;;14.33;100.00
60258;BME280;46115;44.484;11.314;2023-05-02T17:26:43;100396.00;;;14.08;100.00
60258;BME280;46115;44.484;11.314;2023-05-02T17:30:45;100402.59;;;14.29;100.00
60258;BME280;46115;44.484;11.314;2023-05-02T17:34:49;100411.72;;;14.25;100.00
60258;BME280;46115;44.484;11.314;2023-05-02T17:38:51;100418.16;;;14.35;100.00
60258;BME280;46115;44.484;11.314;2023-05-02T17:42:54;100418.59;;;14.42;100.00
60258;BME280;46115;44.484;11.314;2023-05-02T17:46:57;100426.63;;;14.28;100.00
60258;BME280;46115;44.484;11.314;2023-05-02T17:51:01;100421.09;;;14.31;100.00
60258;BME280;46115;44.484;11.314;2023-05-02T17:55:05;100390.38;;;14.13;100.00
60258;BME280;46115;44.484;11.314;2023-05-02T17:59:08;100431.84;;;14.56;100.00
60258;BME280;46115;44.484;11.314;2023-05-02T18:03:11;100441.25;;;14.21;100.00
60258;BME280;46115;44.484;11.314;2023-05-02T18:07:15;100439.78;;;14.02;100.00
60258;BME280;46115;44.484;11.314;2023-05-02T18:11:23;100446.09;;;14.28;100.00
60258;BME280;46115;44.484;11.314;2023-05-02T18:15:26;100449.59;;;14.29;100.00
60258;BME280;46115;44.484;11.314;2023-05-02T18:19:29;100436.22;;;14.30;100.00
60258;BME280;46115;44.484;11.314;2023-05-02T18:23:32;100442.50;;;14.56;100.00
60258;BME280;46115;44.484;11.314;2023-05-02T18:27:35;100449.84;;;14.39;100.00
60258;BME280;46115;44.484;11.314;2023-05-02T18:31:37;100466.72;;;14.11;100.00
60258;BME280;46115;44.484;11.314;2023-05-02T18:35:43;100463.47;;;14.20;100.00
60258;BME280;46115;44.484;11.314;2023-05-02T18:39:47;100467.25;;;14.30;100.00
60258;BME280;46115;44.484;11.314;2023-05-02T18:43:50;100480.69;;;14.55;100.00
60258;BME280;46115;44.484;11.314;2023-05-02T18:47:53;100478.84;;;14.43;100.00
60258;BME280;46115;44.484;11.314;2023-05-02T18:51:55;100482.66;;;14.25;100.00
60258;BME280;46115;44.484;11.314;2023-05-02T18:55:59;100486.22;;;14.38;100.00
60258;BME280;46115;44.484;11.314;2023-05-02T19:00:02;100510.16;;;14.52;100.00
60258;BME280;46115;44.484;11.314;2023-05-02T19:04:06;100505.00;;;14.22;100.00
60258;BME280;46115;44.484;11.314;2023-05-02T22:06:08;100642.47;;;13.46;100.00
60258;BME280;46115;44.484;11.314;2023-05-02T22:10:11;100641.59;;;13.61;100.00
60258;BME280;46115;44.484;11.314;2023-05-02T22:14:13;100649.94;;;13.55;100.00
60258;BME280;46115;44.484;11.314;2023-05-02T22:18:16;100659.28;;;13.77;100.00
60258;BME280;46115;44.484;11.314;2023-05-02T22:22:19;100665.16;;;13.52;100.00
60258;BME280;46115;44.484;11.314;2023-05-02T22:26:22;100638.44;;;13.55;100.00
60258;BME280;46115;44.484;11.314;2023-05-02T22:30:24;100663.44;;;13.51;100.00
60258;BME280;46115;44.484;11.314;2023-05-02T22:34:27;100659.91;;;13.66;100.00
60258;BME280;46115;44.484;11.314;2023-05-02T22:38:30;100657.72;;;13.88;100.00
60258;BME280;46115;44.484;11.314;2023-05-02T22:42:32;100660.81;;;13.81;100.00
60258;BME280;46115;44.484;11.314;2023-05-02T22:46:35;100667.31;;;13.61;100.00
60258;BME280;46115;44.484;11.314;2023-05-02T22:50:38;100667.72;;;13.83;100.00
60258;BME280;46115;44.484;11.314;2023-05-02T22:54:44;100668.25;;;13.90;100.00
60258;BME280;46115;44.484;11.314;2023-05-02T22:58:46;100673.19;;;13.66;100.00
60258;BME280;46115;44.484;11.314;2023-05-02T23:02:49;100671.66;;;13.92;100.00
60258;BME280;46115;44.484;11.314;2023-05-02T23:06:52;100666.44;;;13.90;100.00
60258;BME280;46115;44.484;11.314;2023-05-02T23:10:55;100671.75;;;13.90;100.00
60258;BME280;46115;44.484;11.314;2023-05-02T23:14:58;100670.56;;;13.80;100.00
60258;BME280;46115;44.484;11.314;2023-05-02T23:19:00;100671.25;;;13.84;100.00
60258;BME280;46115;44.484;11.314;2023-05-02T23:23:02;100674.91;;;13.97;100.00
60258;BME280;46115;44.484;11.314;2023-05-02T23:27:06;100665.34;;;13.79;100.00
60258;BME280;46115;44.484;11.314;2023-05-02T23:31:08;100663.94;;;13.87;100.00
60258;BME280;46115;44.484;11.314;2023-05-02T23:35:11;100667.47;;;13.58;100.00
60258;BME280;46115;44.484;11.314;2023-05-02T23:39:13;100662.66;;;13.64;100.00
60258;BME280;46115;44.484;11.314;2023-05-02T23:43:17;100650.34;;;13.78;100.00
60258;BME280;46115;44.484;11.314;2023-05-02T23:47:19;100651.97;;;13.80;100.00
60258;BME280;46115;44.484;11.314;2023-05-02T23:51:22;100649.38;;;13.94;100.00